createdAt,value
2022-10-10T00:01:21.270Z,5.50
2022-10-10T00:03:48.478Z,5.57
2022-10-10T00:06:16.728Z,4.97
2022-10-10T00:08:44.849Z,4.88
2022-10-10T00:11:13.522Z,5.03
2022-10-10T00:13:41.162Z,4.78
2022-10-10T00:16:08.549Z,5.20
2022-10-10T00:18:35.773Z,5.45
2022-10-10T00:21:03.108Z,4.93
2022-10-10T00:23:30.084Z,6.25
2022-10-10T00:25:57.295Z,5.13
2022-10-10T00:28:24.373Z,5.38
2022-10-10T00:30:51.284Z,5.00
2022-10-10T00:33:18.428Z,5.25
2022-10-10T00:35:45.553Z,5.07
2022-10-10T00:38:13.675Z,5.03
2022-10-10T00:40:57.191Z,5.38
2022-10-10T00:43:27.363Z,5.20
2022-10-10T00:45:54.496Z,4.78
2022-10-10T00:48:35.279Z,5.25
2022-10-10T00:51:04.467Z,5.10
2022-10-10T00:53:36.269Z,5.05
2022-10-10T00:56:04.304Z,6.30
2022-10-10T00:58:32.504Z,4.63
2022-10-10T01:00:59.961Z,4.22
2022-10-10T01:03:26.846Z,5.05
2022-10-10T01:05:53.865Z,4.80
2022-10-10T01:08:21.552Z,4.88
2022-10-10T01:11:06.850Z,4.97
2022-10-10T01:14:16.122Z,4.50
2022-10-10T01:17:05.554Z,4.00
2022-10-10T01:20:10.921Z,4.50
2022-10-10T01:23:06.685Z,4.55
2022-10-10T01:26:08.415Z,4.28
2022-10-10T01:28:37.956Z,4.70
2022-10-10T01:31:08.573Z,4.47
2022-10-10T01:34:11.661Z,4.45
2022-10-10T01:36:50.377Z,4.38
2022-10-10T01:39:22.816Z,4.53
2022-10-10T01:42:01.445Z,4.38
2022-10-10T01:44:28.392Z,4.80
2022-10-10T01:46:55.274Z,4.90
2022-10-10T01:49:28.421Z,4.30
2022-10-10T01:51:55.473Z,4.88
2022-10-10T01:54:37.659Z,4.05
2022-10-10T01:57:15.904Z,4.35
2022-10-10T02:00:09.215Z,4.50
2022-10-10T02:03:09.418Z,4.50
2022-10-10T02:05:53.692Z,4.43
2022-10-10T02:08:31.863Z,4.47
2022-10-10T02:11:02.729Z,4.00
2022-10-10T02:13:44.335Z,4.50
2022-10-10T02:16:19.509Z,4.10
2022-10-10T02:18:48.859Z,4.07
2022-10-10T02:21:16.925Z,4.93
2022-10-10T02:23:47.495Z,4.72
2022-10-10T02:26:17.842Z,3.83
2022-10-10T02:28:55.075Z,4.35
2022-10-10T02:31:31.321Z,3.90
2022-10-10T02:34:23.211Z,4.10
2022-10-10T02:37:03.650Z,4.40
2022-10-10T02:39:35.302Z,4.47
2022-10-10T02:42:04.886Z,4.30
2022-10-10T02:44:32.860Z,4.63
2022-10-10T02:46:59.810Z,4.22
2022-10-10T02:49:33.098Z,4.18
2022-10-10T02:52:00.504Z,4.13
2022-10-10T02:54:27.613Z,5.00
2022-10-10T02:56:54.841Z,4.20
2022-10-10T02:59:21.794Z,4.68
2022-10-10T03:01:48.678Z,4.20
2022-10-10T03:04:15.616Z,4.72
2022-10-10T03:06:42.552Z,4.53
2022-10-10T03:09:09.884Z,4.03
2022-10-10T03:11:36.953Z,4.18
2022-10-10T03:14:03.849Z,3.92
2022-10-10T03:16:30.787Z,4.07
2022-10-10T03:18:57.765Z,4.35
2022-10-10T03:21:25.118Z,4.57
2022-10-10T03:23:52.420Z,5.35
2022-10-10T03:26:19.854Z,4.40
2022-10-10T03:28:47.217Z,4.38
2022-10-10T03:31:15.276Z,4.40
2022-10-10T03:33:42.833Z,4.30
2022-10-10T03:36:10.129Z,4.53
2022-10-10T03:38:37.420Z,6.20
2022-10-10T03:41:04.878Z,4.70
2022-10-10T03:43:32.107Z,4.82
2022-10-10T03:45:59.371Z,4.40
2022-10-10T03:48:26.706Z,4.47
2022-10-10T03:50:53.974Z,4.80
2022-10-10T03:53:21.169Z,4.70
2022-10-10T03:55:48.543Z,4.32
2022-10-10T03:58:18.057Z,4.57
2022-10-10T04:00:58.928Z,4.55
2022-10-10T04:03:26.527Z,5.03
2022-10-10T04:05:53.733Z,4.38
2022-10-10T04:08:21.147Z,4.55
2022-10-10T04:10:49.255Z,4.50
2022-10-10T04:13:16.665Z,4.47
2022-10-10T04:15:44.010Z,4.30
2022-10-10T04:18:11.379Z,4.35
2022-10-10T04:20:38.739Z,4.53
2022-10-10T04:23:06.071Z,4.30
2022-10-10T04:25:33.310Z,4.18
2022-10-10T04:28:01.330Z,4.95
2022-10-10T04:30:32.883Z,4.75
2022-10-10T04:33:00.221Z,4.43
2022-10-10T04:35:27.452Z,5.10
2022-10-10T04:37:54.859Z,4.47
2022-10-10T04:40:26.370Z,4.95
2022-10-10T04:42:54.428Z,4.60
2022-10-10T04:45:22.016Z,4.13
2022-10-10T04:47:49.299Z,4.47
2022-10-10T04:50:16.597Z,4.80
2022-10-10T04:52:44.077Z,4.80
2022-10-10T04:55:11.409Z,5.15
2022-10-10T04:57:38.775Z,4.93
2022-10-10T05:00:07.025Z,5.25
2022-10-10T05:02:34.280Z,5.00
2022-10-10T05:05:01.489Z,4.90
2022-10-10T05:07:28.815Z,4.30
2022-10-10T05:09:56.077Z,4.85
2022-10-10T05:12:23.327Z,4.78
2022-10-10T05:14:50.701Z,5.00
2022-10-10T05:17:18.007Z,5.07
2022-10-10T05:19:45.463Z,5.40
2022-10-10T05:22:12.877Z,5.05
2022-10-10T05:24:40.494Z,4.75
2022-10-10T05:27:07.778Z,5.10
2022-10-10T05:29:35.021Z,4.60
2022-10-10T05:32:04.432Z,4.70
2022-10-10T05:34:35.141Z,5.47
2022-10-10T05:37:02.527Z,5.18
2022-10-10T05:39:30.011Z,4.75
2022-10-10T05:41:57.209Z,5.10
2022-10-10T05:44:24.604Z,4.97
2022-10-10T05:46:51.872Z,4.90
2022-10-10T05:49:22.518Z,5.28
2022-10-10T05:51:49.887Z,4.72
2022-10-10T05:54:17.246Z,4.72
2022-10-10T05:56:44.595Z,4.90
2022-10-10T05:59:11.837Z,5.05
2022-10-10T06:01:39.138Z,5.00
2022-10-10T06:04:06.392Z,5.75
2022-10-10T06:06:33.740Z,5.07
2022-10-10T06:09:01.162Z,5.63
2022-10-10T06:11:29.296Z,4.65
2022-10-10T06:13:57.312Z,4.78
2022-10-10T06:16:25.866Z,4.53
2022-10-10T06:18:53.253Z,4.72
2022-10-10T06:21:20.639Z,4.57
2022-10-10T06:23:47.955Z,5.30
2022-10-10T06:26:15.388Z,4.97
2022-10-10T06:28:42.828Z,4.35
2022-10-10T06:31:12.014Z,4.25
2022-10-10T06:33:40.915Z,5.13
2022-10-10T06:36:09.053Z,4.78
2022-10-10T06:38:40.391Z,5.22
2022-10-10T06:41:07.753Z,4.65
2022-10-10T06:43:35.381Z,5.55
2022-10-10T06:46:02.813Z,5.03
2022-10-10T06:48:31.363Z,5.38
2022-10-10T06:51:00.108Z,4.90
2022-10-10T06:53:28.252Z,5.00
2022-10-10T06:55:55.915Z,4.47
2022-10-10T06:58:23.497Z,4.88
2022-10-10T07:00:51.731Z,4.95
2022-10-10T07:03:19.508Z,5.30
2022-10-10T07:05:50.003Z,5.03
2022-10-10T07:08:17.391Z,4.72
2022-10-10T07:10:44.717Z,5.03
2022-10-10T07:13:12.033Z,5.57
2022-10-10T07:15:39.583Z,4.70
2022-10-10T07:18:06.886Z,5.18
2022-10-10T07:20:34.570Z,5.03
2022-10-10T07:23:01.975Z,4.60
2022-10-10T07:25:29.383Z,4.32
2022-10-10T07:27:57.179Z,4.93
2022-10-10T07:30:25.074Z,5.10
2022-10-10T07:32:55.110Z,4.80
2022-10-10T07:35:23.618Z,4.38
2022-10-10T07:37:55.032Z,5.13
2022-10-10T07:40:22.580Z,5.05
2022-10-10T07:42:50.175Z,4.88
2022-10-10T07:45:17.985Z,5.18
2022-10-10T07:47:45.266Z,4.88
2022-10-10T07:50:12.882Z,4.63
2022-10-10T07:52:41.083Z,4.88
2022-10-10T07:55:08.803Z,4.63
2022-10-10T07:57:36.102Z,4.78
2022-10-10T08:00:05.467Z,4.85
2022-10-10T08:02:39.209Z,5.22
2022-10-10T08:05:06.880Z,5.45
2022-10-10T08:07:34.113Z,4.88
2022-10-10T08:10:02.488Z,5.40
2022-10-10T08:12:29.710Z,5.13
2022-10-10T08:14:59.411Z,4.65
2022-10-10T08:17:26.734Z,4.90
2022-10-10T08:19:53.924Z,5.10
2022-10-10T08:22:21.317Z,5.25
2022-10-10T08:24:48.544Z,4.93
2022-10-10T08:27:17.858Z,5.40
2022-10-10T08:29:45.106Z,5.72
2022-10-10T08:32:12.417Z,4.97
2022-10-10T08:34:39.740Z,5.05
2022-10-10T08:37:07.003Z,5.07
2022-10-10T08:39:34.306Z,5.30
2022-10-10T08:42:02.963Z,4.85
2022-10-10T08:44:30.212Z,5.03
2022-10-10T08:47:03.752Z,5.47
2022-10-10T08:49:39.461Z,5.13
2022-10-10T08:52:09.720Z,5.55
2022-10-10T08:54:38.092Z,5.47
2022-10-10T08:57:06.850Z,5.20
2022-10-10T08:59:36.324Z,5.25
2022-10-10T09:02:29.698Z,5.38
2022-10-10T09:05:05.582Z,5.13
2022-10-10T09:07:55.668Z,5.32
2022-10-10T09:11:00.630Z,4.82
2022-10-10T09:13:35.909Z,5.20
2022-10-10T09:16:21.277Z,5.10
2022-10-10T09:19:24.430Z,5.13
2022-10-10T09:21:57.422Z,5.13
2022-10-10T09:24:32.464Z,5.03
2022-10-10T09:27:09.771Z,5.40
2022-10-10T09:29:49.544Z,6.70
2022-10-10T09:32:22.645Z,6.35
2022-10-10T09:35:00.383Z,5.90
2022-10-10T09:37:46.819Z,6.20
2022-10-10T09:40:20.176Z,6.30
2022-10-10T09:42:47.306Z,5.93
2022-10-10T09:45:20.792Z,6.35
2022-10-10T09:47:51.417Z,6.13
2022-10-10T09:50:18.417Z,6.28
2022-10-10T09:52:47.128Z,5.13
2022-10-10T09:55:37.167Z,5.72
2022-10-10T09:58:27.191Z,5.45
2022-10-10T10:00:54.380Z,5.82
2022-10-10T10:03:22.720Z,5.90
2022-10-10T10:06:00.149Z,6.32
2022-10-10T10:08:30.601Z,5.40
2022-10-10T10:10:58.730Z,5.03
2022-10-10T10:13:32.095Z,5.38
2022-10-10T10:16:10.453Z,4.93
2022-10-10T10:18:46.461Z,5.20
2022-10-10T10:21:23.676Z,4.75
2022-10-10T10:24:18.613Z,4.55
2022-10-10T10:26:47.587Z,5.43
2022-10-10T10:29:34.250Z,5.18
2022-10-10T10:32:09.091Z,4.80
2022-10-10T10:34:59.272Z,5.38
2022-10-10T10:37:35.416Z,5.20
2022-10-10T10:40:46.974Z,5.10
2022-10-10T10:43:51.481Z,5.00
2022-10-10T10:46:39.966Z,5.28
2022-10-10T10:49:37.166Z,5.15
2022-10-10T10:52:41.674Z,5.25
2022-10-10T10:55:41.591Z,4.88
2022-10-10T11:01:38.967Z,5.75
2022-10-10T11:05:18.389Z,5.25
2022-10-10T11:07:24.559Z,5.38
2022-10-10T11:10:00.540Z,5.75
2022-10-10T11:13:04.573Z,5.43
2022-10-10T11:16:05.904Z,5.13
2022-10-10T11:18:47.562Z,5.43
2022-10-10T11:21:31.593Z,5.25
2022-10-10T11:24:06.491Z,5.32
2022-10-10T11:26:40.953Z,5.18
2022-10-10T11:29:22.650Z,5.00
2022-10-10T11:32:16.850Z,4.75
2022-10-10T11:35:01.989Z,3.45
2022-10-10T11:40:03.420Z,2.05
2022-10-10T11:42:36.306Z,1.85
2022-10-10T11:45:05.766Z,1.77
2022-10-10T11:47:37.911Z,1.63
2022-10-10T11:50:21.862Z,1.17
2022-10-10T11:53:16.286Z,1.38
2022-10-10T11:56:04.234Z,1.45
2022-10-10T11:58:41.326Z,1.20
2022-10-10T12:01:33.608Z,1.20
2022-10-10T12:04:00.559Z,1.00
2022-10-10T12:06:41.225Z,1.00
2022-10-10T12:09:21.364Z,1.13
2022-10-10T12:11:57.728Z,1.05
2022-10-10T12:14:28.021Z,1.00
2022-10-10T12:16:58.889Z,1.02
2022-10-10T12:19:28.359Z,0.85
2022-10-10T12:22:05.541Z,0.82
2022-10-10T12:24:36.257Z,0.77
2022-10-10T12:27:27.226Z,0.70
2022-10-10T12:29:57.386Z,0.80
2022-10-10T12:32:28.663Z,1.15
2022-10-10T12:35:00.649Z,0.95
2022-10-10T12:37:32.522Z,0.80
2022-10-10T12:40:03.275Z,0.88
2022-10-10T12:42:32.344Z,0.70
2022-10-10T12:45:00.148Z,0.80
2022-10-10T12:47:46.618Z,0.70
2022-10-10T12:50:23.532Z,0.95
2022-10-10T12:52:56.376Z,1.00
2022-10-10T12:55:32.307Z,0.88
2022-10-10T12:58:01.632Z,1.08
2022-10-10T13:00:36.841Z,1.00
2022-10-10T13:03:05.685Z,1.10
2022-10-10T13:05:37.703Z,1.45
2022-10-10T13:08:06.549Z,1.02
2022-10-10T13:10:34.025Z,1.48
2022-10-10T13:13:05.612Z,1.52
2022-10-10T13:15:33.707Z,1.73
2022-10-10T13:18:01.002Z,1.20
2022-10-10T13:20:39.308Z,1.27
2022-10-10T13:23:08.743Z,1.17
2022-10-10T13:25:38.270Z,1.38
2022-10-10T13:28:06.271Z,1.30
2022-10-10T13:30:33.704Z,1.15
2022-10-10T13:33:00.997Z,1.42
2022-10-10T13:35:28.570Z,1.40
2022-10-10T13:37:57.018Z,1.25
2022-10-10T13:40:25.007Z,1.20
2022-10-10T13:42:52.643Z,1.35
2022-10-10T13:45:30.308Z,1.33
2022-10-10T13:48:03.812Z,1.52
2022-10-10T13:50:35.005Z,1.40
2022-10-10T13:53:21.031Z,1.70
2022-10-10T13:55:48.314Z,2.00
2022-10-10T13:58:15.802Z,1.90
2022-10-10T14:00:43.066Z,2.10
2022-10-10T14:03:15.620Z,2.25
2022-10-10T14:05:46.702Z,1.90
2022-10-10T14:08:20.144Z,2.22
2022-10-10T14:11:06.967Z,2.42
2022-10-10T14:13:37.111Z,1.60
2022-10-10T14:16:21.706Z,2.53
2022-10-10T14:18:48.768Z,1.80
2022-10-10T14:21:15.570Z,1.92
2022-10-10T14:23:42.535Z,1.70
2022-10-10T14:26:15.936Z,2.03
2022-10-10T14:28:43.743Z,2.28
2022-10-10T14:31:11.171Z,1.98
2022-10-10T14:33:38.335Z,2.20
2022-10-10T14:36:05.829Z,2.20
2022-10-10T14:38:32.925Z,2.63
2022-10-10T14:41:00.893Z,2.47
2022-10-10T14:43:28.397Z,2.47
2022-10-10T14:45:55.566Z,2.33
2022-10-10T14:48:22.990Z,2.00
2022-10-10T14:50:51.339Z,2.45
2022-10-10T14:53:18.659Z,1.88
2022-10-10T14:55:46.367Z,2.17
2022-10-10T14:58:22.897Z,1.77
2022-10-10T15:00:51.883Z,2.00
2022-10-10T15:03:18.836Z,1.95
2022-10-10T15:05:46.186Z,1.92
2022-10-10T15:08:14.693Z,1.75
2022-10-10T15:10:42.455Z,1.83
2022-10-10T15:13:13.614Z,2.13
2022-10-10T15:15:40.619Z,1.77
2022-10-10T15:18:25.687Z,1.90
2022-10-10T15:20:55.069Z,1.73
2022-10-10T15:23:21.908Z,1.70
2022-10-10T15:25:48.783Z,2.13
2022-10-10T15:28:15.865Z,2.40
2022-10-10T15:30:45.847Z,2.03
2022-10-10T15:33:12.765Z,1.98
2022-10-10T15:36:03.851Z,1.80
2022-10-10T15:38:27.523Z,2.17
2022-10-10T15:40:59.212Z,2.05
2022-10-10T15:43:27.771Z,1.67
2022-10-10T15:45:56.493Z,1.50
2022-10-10T15:48:23.534Z,1.55
2022-10-10T15:50:51.388Z,2.40
2022-10-10T15:53:18.811Z,1.75
2022-10-10T15:55:47.198Z,1.90
2022-10-10T15:58:15.542Z,1.40
2022-10-10T16:00:43.963Z,2.05
2022-10-10T16:03:11.291Z,1.52
2022-10-10T16:05:39.795Z,2.03
2022-10-10T16:08:12.023Z,1.67
2022-10-10T16:10:40.744Z,1.60
2022-10-10T16:13:08.191Z,2.20
2022-10-10T16:15:35.363Z,1.80
2022-10-10T16:18:02.842Z,1.80
2022-10-10T16:20:29.755Z,1.75
2022-10-10T16:22:56.622Z,2.38
2022-10-10T16:25:23.637Z,2.00
2022-10-10T16:27:50.510Z,1.75
2022-10-10T16:30:17.507Z,2.25
2022-10-10T16:32:44.480Z,2.30
2022-10-10T16:35:11.757Z,2.08
2022-10-10T16:37:39.423Z,1.92
2022-10-10T16:40:07.386Z,2.15
2022-10-10T16:42:34.533Z,2.05
2022-10-10T16:45:01.512Z,1.73
2022-10-10T16:47:28.386Z,2.20
2022-10-10T16:49:55.282Z,2.08
2022-10-10T16:52:22.121Z,2.00
2022-10-10T16:54:52.183Z,2.10
2022-10-10T16:57:19.727Z,1.98
2022-10-10T16:59:46.685Z,2.10
2022-10-10T17:02:13.909Z,2.60
2022-10-10T17:04:40.759Z,2.03
2022-10-10T17:07:08.745Z,2.63
2022-10-10T17:09:35.632Z,2.08
2022-10-10T17:12:02.594Z,2.30
2022-10-10T17:14:29.392Z,2.45
2022-10-10T17:17:13.190Z,2.50
2022-10-10T17:19:40.860Z,2.30
2022-10-10T17:22:07.906Z,1.85
2022-10-10T17:24:35.623Z,2.25
2022-10-10T17:27:02.552Z,2.10
2022-10-10T17:29:29.548Z,2.28
2022-10-10T17:31:56.465Z,2.08
2022-10-10T17:34:23.362Z,2.20
2022-10-10T17:36:50.320Z,1.80
2022-10-10T17:39:17.244Z,2.40
2022-10-10T17:41:45.986Z,2.80
2022-10-10T17:44:13.518Z,2.60
2022-10-10T17:46:40.900Z,3.20
2022-10-10T17:49:10.584Z,3.42
2022-10-10T17:51:43.301Z,3.30
2022-10-10T17:54:10.602Z,3.28
2022-10-10T17:56:37.641Z,2.97
2022-10-10T17:59:06.793Z,2.45
2022-10-10T18:01:35.471Z,2.65
2022-10-10T18:04:02.883Z,2.53
2022-10-10T18:06:30.901Z,3.00
2022-10-10T18:08:58.392Z,2.40
2022-10-10T18:11:28.456Z,2.88
2022-10-10T18:14:00.483Z,3.00
2022-10-10T18:16:32.299Z,3.20
2022-10-10T18:18:59.639Z,3.45
2022-10-10T18:21:27.382Z,2.78
2022-10-10T18:23:54.322Z,3.08
2022-10-10T18:26:23.756Z,2.40
2022-10-10T18:28:54.929Z,2.83
2022-10-10T18:31:34.096Z,2.70
2022-10-10T18:34:01.852Z,2.50
2022-10-10T18:36:31.409Z,2.30
2022-10-10T18:39:00.081Z,2.35
2022-10-10T18:41:36.591Z,2.25
2022-10-10T18:44:10.427Z,2.40
2022-10-10T18:46:37.777Z,2.63
2022-10-10T18:49:06.251Z,3.10
2022-10-10T18:51:33.421Z,3.38
2022-10-10T18:54:03.923Z,3.10
2022-10-10T18:56:32.566Z,4.20
2022-10-10T18:59:01.745Z,3.15
2022-10-10T19:01:30.939Z,3.25
2022-10-10T19:03:58.095Z,3.72
2022-10-10T19:06:26.131Z,4.40
2022-10-10T19:08:54.983Z,4.25
2022-10-10T19:11:24.733Z,4.15
2022-10-10T19:13:52.068Z,4.50
2022-10-10T19:16:19.546Z,4.35
2022-10-10T19:18:46.703Z,4.25
2022-10-10T19:21:15.096Z,4.53
2022-10-10T19:23:43.049Z,3.55
2022-10-10T19:26:12.899Z,3.33
2022-10-10T19:28:40.419Z,4.10
2022-10-10T19:31:13.028Z,3.40
2022-10-10T19:33:40.521Z,3.42
2022-10-10T19:36:09.504Z,4.10
2022-10-10T19:38:41.099Z,4.15
2022-10-10T19:41:10.373Z,3.97
2022-10-10T19:43:37.284Z,3.80
2022-10-10T19:46:06.690Z,3.97
2022-10-10T19:48:43.497Z,3.45
2022-10-10T19:51:13.739Z,3.70
2022-10-10T19:53:41.829Z,3.58
2022-10-10T19:56:20.742Z,4.15
2022-10-10T19:58:47.722Z,3.33
2022-10-10T20:01:16.923Z,3.50
2022-10-10T20:03:45.546Z,3.20
2022-10-10T20:06:12.495Z,3.08
2022-10-10T20:08:39.649Z,3.22
2022-10-10T20:11:06.898Z,2.72
2022-10-10T20:13:34.751Z,3.10
2022-10-10T20:16:04.083Z,3.45
2022-10-10T20:18:34.024Z,2.80
2022-10-10T20:21:06.410Z,2.53
2022-10-10T20:23:33.732Z,2.40
2022-10-10T20:26:00.963Z,2.22
2022-10-10T20:28:28.232Z,2.40
2022-10-10T20:30:55.197Z,2.53
2022-10-10T20:33:22.210Z,2.42
2022-10-10T20:35:53.662Z,2.20
2022-10-10T20:38:23.025Z,2.22
2022-10-10T20:40:49.923Z,2.30
2022-10-10T20:43:16.765Z,1.95
2022-10-10T20:45:43.565Z,2.28
2022-10-10T20:48:10.590Z,2.03
2022-10-10T20:50:38.869Z,2.70
2022-10-10T20:53:06.735Z,2.50
2022-10-10T20:55:34.193Z,1.77
2022-10-10T20:58:01.126Z,2.28
2022-10-10T21:00:28.238Z,2.50
2022-10-10T21:02:56.418Z,2.38
2022-10-10T21:05:23.773Z,2.53
2022-10-10T21:07:50.931Z,2.78
2022-10-10T21:10:18.002Z,2.55
2022-10-10T21:12:44.827Z,2.45
2022-10-10T21:15:11.667Z,2.20
2022-10-10T21:17:39.062Z,2.63
2022-10-10T21:20:06.421Z,2.55
2022-10-10T21:22:33.356Z,3.03
2022-10-10T21:25:00.472Z,2.58
2022-10-10T21:27:27.371Z,2.50
2022-10-10T21:29:54.276Z,2.40
2022-10-10T21:32:21.291Z,2.40
2022-10-10T21:34:55.616Z,2.20
2022-10-10T21:37:23.434Z,2.30
2022-10-10T21:39:50.229Z,2.22
2022-10-10T21:42:17.287Z,2.20
2022-10-10T21:44:44.200Z,2.65
2022-10-10T21:47:11.089Z,3.00
2022-10-10T21:49:37.956Z,2.53
2022-10-10T21:52:05.637Z,2.28
2022-10-10T21:54:32.435Z,3.05
2022-10-10T21:56:59.328Z,2.85
2022-10-10T21:59:30.198Z,2.75
2022-10-10T22:01:57.471Z,2.53
2022-10-10T22:04:28.695Z,2.63
2022-10-10T22:06:56.236Z,2.95
2022-10-10T22:09:23.474Z,2.47
2022-10-10T22:11:50.457Z,7.05
2022-10-10T22:14:17.517Z,10.25
2022-10-10T22:16:44.661Z,8.38
2022-10-10T22:19:11.439Z,6.72
2022-10-10T22:21:40.519Z,7.40
2022-10-10T22:24:08.322Z,6.25
2022-10-10T22:26:35.436Z,5.70
2022-10-10T22:29:02.742Z,4.10
2022-10-10T22:31:30.280Z,3.88
2022-10-10T22:33:57.736Z,3.80
2022-10-10T22:36:24.732Z,3.78
2022-10-10T22:38:51.708Z,2.83
2022-10-10T22:41:18.787Z,2.80
2022-10-10T22:43:45.704Z,2.50
2022-10-10T22:46:13.342Z,2.03
2022-10-10T22:48:40.211Z,2.65
2022-10-10T22:51:11.549Z,2.42
2022-10-10T22:53:42.702Z,2.53
2022-10-10T22:56:11.123Z,1.90
2022-10-10T22:58:38.185Z,2.22
2022-10-10T23:01:11.460Z,2.15
2022-10-10T23:03:38.528Z,1.88
2022-10-10T23:06:06.445Z,2.30
2022-10-10T23:08:34.012Z,2.10
2022-10-10T23:11:01.739Z,1.80
2022-10-10T23:13:28.986Z,2.08
2022-10-10T23:15:56.188Z,1.98
2022-10-10T23:18:24.412Z,1.92
2022-10-10T23:20:51.809Z,1.90
2022-10-10T23:23:19.477Z,1.90
2022-10-10T23:25:47.595Z,1.85
2022-10-10T23:28:15.595Z,1.95
2022-10-10T23:30:43.666Z,2.15
2022-10-10T23:33:11.317Z,2.05
2022-10-10T23:35:38.863Z,2.15
2022-10-10T23:38:06.455Z,2.08
2022-10-10T23:40:34.159Z,1.95
2022-10-10T23:43:01.602Z,1.70
2022-10-10T23:45:28.862Z,1.75
2022-10-10T23:47:56.137Z,1.88
2022-10-10T23:50:23.460Z,2.17
2022-10-10T23:52:50.719Z,2.80
2022-10-10T23:55:17.946Z,2.05
2022-10-10T23:57:45.376Z,1.92
